createdAt,value
2019-05-25T00:00:59.073Z,24.27
2019-05-25T00:03:29.057Z,24.03
2019-05-25T00:08:48.014Z,23.94
2019-05-25T00:11:18.282Z,24.16
2019-05-25T00:14:07.300Z,24.25
2019-05-25T00:16:37.452Z,24.19
2019-05-25T00:19:45.236Z,24.43
2019-05-25T00:22:15.509Z,24.59
2019-05-25T00:27:57.830Z,24.67
2019-05-25T00:30:30.103Z,24.76
2019-05-25T00:33:00.170Z,24.72
2019-05-25T00:35:30.191Z,24.93
2019-05-25T00:38:00.449Z,24.69
2019-05-25T00:40:30.636Z,24.66
2019-05-25T00:43:00.662Z,24.59
2019-05-25T00:45:30.772Z,24.36
2019-05-25T00:51:00.892Z,24.18
2019-05-25T00:54:01.111Z,24.30
2019-05-25T00:56:21.394Z,24.56
2019-05-25T00:59:22.058Z,24.89
2019-05-25T01:01:42.709Z,24.79
2019-05-25T01:04:32.629Z,24.78
2019-05-25T01:07:03.462Z,24.78
2019-05-25T01:09:55.618Z,24.72
2019-05-25T01:12:37.350Z,24.78
2019-05-25T01:15:15.615Z,24.78
2019-05-25T01:18:07.732Z,25.02
2019-05-25T01:23:46.126Z,25.19
2019-05-25T01:26:49.125Z,25.32
2019-05-25T01:29:40.008Z,25.33
2019-05-25T01:32:47.876Z,25.34
2019-05-25T01:38:53.168Z,25.41
2019-05-25T01:41:56.466Z,25.49
2019-05-25T01:47:28.482Z,25.53
2019-05-25T01:54:05.446Z,25.28
2019-05-25T01:56:46.948Z,25.47
2019-05-25T01:59:39.424Z,25.47
2019-05-25T02:02:29.220Z,24.98
2019-05-25T02:05:19.167Z,24.98
2019-05-25T02:08:11.738Z,24.79
2019-05-25T02:11:04.421Z,24.88
2019-05-25T02:13:14.084Z,25.02
2019-05-25T02:19:31.618Z,25.34
2019-05-25T02:22:34.412Z,25.34
2019-05-25T02:25:17.209Z,25.14
2019-05-25T02:27:37.606Z,25.14
2019-05-25T02:32:57.088Z,25.10
2019-05-25T02:35:28.005Z,25.21
2019-05-25T02:37:58.421Z,25.28
2019-05-25T02:40:28.380Z,25.33
2019-05-25T02:42:59.285Z,25.22
2019-05-25T02:48:52.477Z,25.10
2019-05-25T02:54:24.023Z,24.86
2019-05-25T02:57:14.188Z,24.96
2019-05-25T03:00:36.970Z,25.02
2019-05-25T03:03:29.863Z,24.97
2019-05-25T03:06:13.251Z,24.53
2019-05-25T03:09:22.214Z,24.32
2019-05-25T03:15:49.043Z,24.20
2019-05-25T03:18:19.092Z,24.33
2019-05-25T03:23:31.845Z,24.57
2019-05-25T03:28:44.075Z,24.36
2019-05-25T03:34:14.942Z,23.77
2019-05-25T03:37:04.820Z,23.61
2019-05-25T03:39:45.301Z,23.53
2019-05-25T03:42:34.888Z,23.53
2019-05-25T03:48:16.148Z,23.86
2019-05-25T03:51:05.255Z,23.89
2019-05-25T03:56:19.923Z,24.19
2019-05-25T04:01:49.189Z,24.14
2019-05-25T04:04:19.345Z,24.18
2019-05-25T04:09:59.376Z,24.05
2019-05-25T04:12:52.582Z,23.83
2019-05-25T04:15:53.236Z,23.81
2019-05-25T04:19:02.176Z,24.08
2019-05-25T04:21:32.957Z,24.27
2019-05-25T04:24:07.511Z,24.51
2019-05-25T04:29:58.971Z,24.66
2019-05-25T04:32:31.249Z,24.73
2019-05-25T04:35:03.767Z,24.89
2019-05-25T04:37:36.406Z,25.49
2019-05-25T04:43:14.313Z,26.40
2019-05-25T04:45:44.335Z,26.18
2019-05-25T04:49:04.439Z,26.02
2019-05-25T04:52:19.424Z,26.07
2019-05-25T04:54:29.391Z,26.94
2019-05-25T04:57:18.965Z,27.78
2019-05-25T04:59:49.787Z,28.03
2019-05-25T05:02:20.676Z,27.73
2019-05-25T05:04:50.695Z,27.95
2019-05-25T05:10:30.667Z,28.71
2019-05-25T05:13:20.480Z,29.34
2019-05-25T05:15:51.345Z,29.34
2019-05-25T05:18:33.492Z,30.02
2019-05-25T05:21:22.734Z,30.02
2019-05-25T05:32:31.758Z,30.11
2019-05-25T05:35:01.749Z,30.15
2019-05-25T05:37:31.870Z,30.09
2019-05-25T05:40:02.029Z,30.06
2019-05-25T05:42:32.672Z,30.22
2019-05-25T05:45:23.810Z,31.06
2019-05-25T05:47:53.894Z,31.06
2019-05-25T05:50:24.727Z,31.79
2019-05-25T05:52:54.932Z,31.86
2019-05-25T05:58:52.337Z,32.18
2019-05-25T06:01:22.485Z,32.25
2019-05-25T06:03:52.520Z,32.36
2019-05-25T06:06:41.557Z,32.63
2019-05-25T06:09:11.549Z,33.33
2019-05-25T06:11:41.642Z,33.06
2019-05-25T06:20:49.913Z,32.21
2019-05-25T06:23:20.710Z,32.31
2019-05-25T06:25:50.714Z,32.73
2019-05-25T06:28:39.826Z,32.06
2019-05-25T06:31:11.930Z,31.60
2019-05-25T06:37:09.202Z,31.93
2019-05-25T06:39:39.251Z,32.49
2019-05-25T06:42:27.998Z,32.92
2019-05-25T06:44:58.075Z,33.09
2019-05-25T06:50:08.555Z,33.32
2019-05-25T06:52:38.680Z,33.14
2019-05-25T06:55:08.856Z,33.49
2019-05-25T06:57:43.657Z,33.99
2019-05-25T07:06:24.256Z,33.41
2019-05-25T07:08:42.669Z,33.31
2019-05-25T07:14:43.197Z,32.87
2019-05-25T07:17:13.789Z,32.54
2019-05-25T07:20:14.687Z,32.64
2019-05-25T07:22:45.294Z,32.64
2019-05-25T07:25:15.430Z,32.90
2019-05-25T07:27:58.946Z,33.14
2019-05-25T07:40:11.593Z,31.85
2019-05-25T07:43:00.693Z,32.26
2019-05-25T07:46:00.513Z,32.46
2019-05-25T07:54:15.857Z,31.92
2019-05-25T07:56:59.042Z,32.27
2019-05-25T07:59:47.939Z,32.57
2019-05-25T08:02:18.078Z,32.66
2019-05-25T08:05:06.957Z,33.23
2019-05-25T08:07:41.589Z,33.48
2019-05-25T08:10:50.903Z,33.74
2019-05-25T08:13:21.203Z,34.03
2019-05-25T08:15:51.001Z,33.96
2019-05-25T08:18:39.855Z,34.50
2019-05-25T08:21:10.043Z,34.62
2019-05-25T08:23:58.889Z,34.60
2019-05-25T08:27:00.900Z,34.83
2019-05-25T08:32:55.086Z,34.97
2019-05-25T08:39:02.080Z,34.64
2019-05-25T08:41:32.210Z,34.36
2019-05-25T08:44:21.061Z,34.24
2019-05-25T08:46:51.102Z,34.77
2019-05-25T08:49:40.257Z,35.00
2019-05-25T08:52:29.396Z,35.23
2019-05-25T08:54:59.597Z,35.26
2019-05-25T08:57:29.581Z,35.46
2019-05-25T09:00:18.443Z,36.04
2019-05-25T09:02:48.544Z,36.42
2019-05-25T09:05:18.649Z,37.02
2019-05-25T09:07:50.475Z,36.92
2019-05-25T09:10:20.575Z,36.79
2019-05-25T09:12:52.489Z,36.70
2019-05-25T09:15:50.973Z,36.77
2019-05-25T09:21:39.048Z,35.46
2019-05-25T09:24:21.808Z,35.17
2019-05-25T09:26:45.969Z,35.45
2019-05-25T09:29:36.850Z,35.53
2019-05-25T09:35:29.981Z,35.48
2019-05-25T09:44:14.192Z,35.16
2019-05-25T09:47:04.259Z,35.12
2019-05-25T09:50:05.454Z,35.07
2019-05-25T09:52:28.389Z,34.74
2019-05-25T09:57:42.309Z,34.56
2019-05-25T10:03:36.683Z,34.28
2019-05-25T10:06:12.548Z,34.50
2019-05-25T10:08:40.013Z,34.48
2019-05-25T10:11:11.422Z,34.31
2019-05-25T10:19:29.691Z,34.61
2019-05-25T10:24:53.239Z,34.55
2019-05-25T10:27:28.130Z,34.59
2019-05-25T10:39:27.917Z,35.26
2019-05-25T10:41:50.246Z,35.80
2019-05-25T10:50:21.183Z,35.58
2019-05-25T10:53:04.736Z,35.71
2019-05-25T10:55:26.684Z,35.49
2019-05-25T10:57:58.484Z,35.07
2019-05-25T11:00:32.531Z,35.07
2019-05-25T11:03:23.175Z,34.67
2019-05-25T11:05:54.737Z,34.35
2019-05-25T11:08:45.512Z,33.47
2019-05-25T11:11:36.516Z,33.47
2019-05-25T11:14:27.148Z,33.37
2019-05-25T11:16:58.772Z,33.73
2019-05-25T11:22:42.354Z,32.91
2019-05-25T11:25:43.458Z,33.13
2019-05-25T11:28:53.094Z,33.70
2019-05-25T11:36:53.949Z,32.60
2019-05-25T11:42:09.523Z,32.04
2019-05-25T11:45:01.405Z,32.13
2019-05-25T11:47:35.407Z,32.82
2019-05-25T11:50:46.736Z,33.65
2019-05-25T11:53:33.745Z,34.91
2019-05-25T11:56:15.870Z,34.91
2019-05-25T12:04:46.190Z,35.79
2019-05-25T12:07:20.442Z,35.83
2019-05-25T12:09:52.427Z,35.87
2019-05-25T12:15:33.969Z,36.11
2019-05-25T12:18:46.041Z,36.50
2019-05-25T12:24:08.470Z,36.35
2019-05-25T12:26:40.235Z,36.24
2019-05-25T12:29:17.846Z,35.85
2019-05-25T12:31:49.665Z,35.40
2019-05-25T12:34:42.192Z,35.00
2019-05-25T12:37:14.377Z,35.00
2019-05-25T12:40:05.607Z,35.47
2019-05-25T12:42:56.504Z,35.60
2019-05-25T12:45:30.643Z,36.06
2019-05-25T12:48:21.571Z,36.25
2019-05-25T12:51:12.035Z,36.61
2019-05-25T12:53:46.490Z,36.40
2019-05-25T12:56:18.320Z,36.08
2019-05-25T12:59:09.552Z,36.11
2019-05-25T13:07:41.259Z,36.58
2019-05-25T13:10:32.016Z,36.79
2019-05-25T13:16:06.125Z,35.90
2019-05-25T13:18:44.816Z,36.32
2019-05-25T13:28:24.331Z,37.48
2019-05-25T13:31:10.674Z,36.60
2019-05-25T13:33:49.881Z,36.19
2019-05-25T13:43:23.961Z,35.84
2019-05-25T13:45:55.081Z,35.92
2019-05-25T13:48:48.163Z,35.90
2019-05-25T13:51:20.381Z,35.90
2019-05-25T13:54:41.531Z,35.79
2019-05-25T13:59:52.448Z,36.22
2019-05-25T14:03:00.286Z,36.59
2019-05-25T14:09:05.432Z,36.34
2019-05-25T14:15:14.596Z,36.92
2019-05-25T14:17:56.690Z,36.61
2019-05-25T14:21:35.246Z,36.25
2019-05-25T14:28:15.405Z,36.15
2019-05-25T14:34:42.095Z,35.59
2019-05-25T14:40:44.979Z,36.19
2019-05-25T14:46:39.202Z,36.69
2019-05-25T14:52:03.887Z,36.79
2019-05-25T14:54:37.171Z,36.79
2019-05-25T15:00:30.501Z,36.58
2019-05-25T15:03:02.367Z,36.95
2019-05-25T15:05:35.269Z,36.78
2019-05-25T15:11:27.984Z,37.26
2019-05-25T15:19:35.544Z,37.66
2019-05-25T15:28:11.557Z,37.77
2019-05-25T15:31:02.434Z,37.82
2019-05-25T15:33:34.491Z,37.54
2019-05-25T15:36:24.128Z,37.44
2019-05-25T15:42:06.588Z,37.33
2019-05-25T15:47:33.663Z,37.22
2019-05-25T15:50:37.500Z,37.22
2019-05-25T15:53:10.342Z,37.60
2019-05-25T15:55:42.161Z,37.23
2019-05-25T15:58:13.186Z,37.47
2019-05-25T16:04:15.703Z,37.53
2019-05-25T16:06:47.566Z,37.72
2019-05-25T16:09:19.575Z,38.01
2019-05-25T16:15:32.048Z,37.92
2019-05-25T16:18:15.734Z,38.07
2019-05-25T16:21:26.055Z,37.95
2019-05-25T16:27:07.078Z,37.87
2019-05-25T16:35:45.158Z,37.69
2019-05-25T16:38:16.274Z,37.61
2019-05-25T16:46:19.624Z,37.04
2019-05-25T16:51:50.468Z,37.26
2019-05-25T16:57:55.658Z,37.29
2019-05-25T17:00:32.675Z,37.26
2019-05-25T17:06:03.812Z,37.30
2019-05-25T17:08:56.084Z,37.19
2019-05-25T17:11:26.267Z,37.02
2019-05-25T17:13:57.880Z,36.87
2019-05-25T17:16:48.777Z,36.81
2019-05-25T17:19:19.954Z,36.75
2019-05-25T17:22:12.206Z,36.45
2019-05-25T17:24:43.244Z,36.30
2019-05-25T17:27:16.483Z,36.46
2019-05-25T17:30:08.420Z,36.44
2019-05-25T17:35:40.369Z,35.37
2019-05-25T17:38:30.354Z,35.37
2019-05-25T17:54:18.730Z,35.26
2019-05-25T17:56:50.044Z,34.39
2019-05-25T17:59:23.774Z,33.67
2019-05-25T18:04:45.821Z,32.74
2019-05-25T18:07:15.580Z,32.23
2019-05-25T18:13:07.257Z,31.88
2019-05-25T18:15:48.795Z,31.23
2019-05-25T18:18:39.688Z,31.04
2019-05-25T18:24:44.341Z,30.68
2019-05-25T18:27:46.556Z,30.37
2019-05-25T18:30:09.454Z,30.08
2019-05-25T18:38:45.296Z,29.07
2019-05-25T18:45:35.327Z,28.82
2019-05-25T18:47:55.249Z,28.53
2019-05-25T18:51:04.110Z,28.39
2019-05-25T18:59:23.075Z,27.93
2019-05-25T19:02:33.259Z,27.91
2019-05-25T19:05:16.607Z,27.67
2019-05-25T19:11:02.778Z,27.13
2019-05-25T19:13:33.742Z,27.00
2019-05-25T19:16:07.209Z,26.84
2019-05-25T19:19:00.767Z,26.91
2019-05-25T19:21:32.642Z,26.85
2019-05-25T19:24:03.750Z,26.77
2019-05-25T19:26:34.861Z,26.79
2019-05-25T19:29:36.740Z,26.78
2019-05-25T19:32:13.063Z,26.75
2019-05-25T19:34:58.633Z,26.59
2019-05-25T19:37:29.311Z,26.56
2019-05-25T19:42:54.770Z,26.51
2019-05-25T19:48:31.274Z,26.14
2019-05-25T20:04:23.282Z,25.73
2019-05-25T20:07:33.375Z,25.87
2019-05-25T20:10:15.943Z,26.12
2019-05-25T20:13:07.789Z,26.05
2019-05-25T20:22:03.505Z,26.00
2019-05-25T20:33:44.957Z,25.69
2019-05-25T20:36:24.929Z,25.67
2019-05-25T20:39:11.480Z,25.73
2019-05-25T20:42:02.180Z,25.93
2019-05-25T20:48:18.800Z,25.74
2019-05-25T20:54:17.122Z,25.44
2019-05-25T20:57:19.616Z,25.29
2019-05-25T21:03:05.290Z,25.10
2019-05-25T21:05:50.323Z,25.01
2019-05-25T21:08:36.086Z,24.98
2019-05-25T21:11:11.228Z,24.92
2019-05-25T21:14:39.988Z,25.01
2019-05-25T21:17:14.187Z,25.06
2019-05-25T21:19:45.821Z,24.73
2019-05-25T21:22:38.187Z,24.68
2019-05-25T21:25:48.460Z,24.61
2019-05-25T21:28:19.623Z,24.40
2019-05-25T21:30:50.842Z,24.34
2019-05-25T21:34:13.127Z,24.32
2019-05-25T21:36:53.495Z,24.17
2019-05-25T21:39:57.146Z,24.27
2019-05-25T21:43:01.417Z,24.40
2019-05-25T21:48:36.069Z,24.17
2019-05-25T21:51:30.058Z,24.04
2019-05-25T21:59:44.348Z,23.82
2019-05-25T22:07:45.487Z,23.62
2019-05-25T22:17:09.219Z,23.40
2019-05-25T22:19:47.694Z,23.29
2019-05-25T22:22:37.819Z,23.28
2019-05-25T22:28:22.691Z,23.33
2019-05-25T22:30:57.124Z,23.39
2019-05-25T22:33:38.750Z,23.37
2019-05-25T22:36:39.228Z,23.44
2019-05-25T22:38:50.984Z,23.39
2019-05-25T22:41:11.450Z,23.30
2019-05-25T22:44:21.826Z,23.16
2019-05-25T22:46:56.891Z,23.11
2019-05-25T22:57:58.119Z,22.92
2019-05-25T23:00:48.144Z,22.90
2019-05-25T23:09:21.156Z,22.82
2019-05-25T23:12:12.389Z,22.74
2019-05-25T23:14:43.488Z,22.66
2019-05-25T23:17:14.443Z,22.50
2019-05-25T23:23:33.319Z,22.45
2019-05-25T23:26:44.070Z,22.31
2019-05-25T23:29:18.704Z,22.36
2019-05-25T23:32:14.255Z,22.25
2019-05-25T23:38:43.168Z,22.12
2019-05-25T23:41:15.418Z,22.12
2019-05-25T23:44:24.682Z,22.08
2019-05-25T23:47:10.759Z,22.22
2019-05-25T23:56:08.077Z,21.84
2019-05-25T23:59:00.143Z,21.90
